Time;durP1;ratioP1;P1;durP2;ratioP2;P2;SDS_P1;SDS_P2;PMS_P1;PMS_P2;Temp;Humidity;BMP_temperature;BMP_pressure;BME280_temperature;BME280_humidity;BME280_pressure;Samples;Min_cycle;Max_cycle;Signal;HPM_P1;HPM_P2
2022/01/27 00:05:20;;;;;;;56.30;18.27;;;;;;;6.03;77.48;102563.00;4994615;28;20049;-40
2022/01/27 00:08:00;;;;;;;61.13;20.17;;;;;;;6.02;76.94;102560.44;4995162;28;20129;-40
2022/01/27 00:13:17;;;;;;;52.70;19.50;;;;;;;5.96;76.58;102545.69;4995278;28;20092;-41
2022/01/27 00:15:45;;;;;;;65.07;21.83;;;;;;;5.97;76.72;102546.53;4999252;28;20088;-42
2022/01/27 00:18:20;;;;;;;52.22;19.92;;;;;;;5.99;76.74;102544.63;5013647;28;20499;-41
2022/01/27 00:20:46;;;;;;;56.35;19.42;;;;;;;6.00;76.90;102552.50;5014059;28;20443;-41
2022/01/27 00:23:11;;;;;;;71.03;21.13;;;;;;;6.00;77.21;102563.22;5014531;28;20142;-41
2022/01/27 00:25:37;;;;;;;64.43;21.20;;;;;;;5.98;77.17;102559.81;5014734;28;20030;-41
2022/01/27 00:28:05;;;;;;;66.35;21.63;;;;;;;6.02;77.45;102552.41;4995445;28;20034;-41
2022/01/27 00:30:30;;;;;;;;;;;;;;;6.00;77.09;102546.31;4995319;28;20031;-41
2022/01/27 00:32:56;;;;;;;56.03;20.08;;;;;;;5.97;76.85;102551.91;4994765;28;19913;-42
2022/01/27 00:35:21;;;;;;;62.72;22.48;;;;;;;5.97;76.93;102542.06;4994965;28;20034;-41
2022/01/27 00:37:46;;;;;;;59.95;21.05;;;;;;;5.96;76.73;102545.69;4994310;28;20053;-41
2022/01/27 00:40:12;;;;;;;57.65;20.85;;;;;;;5.96;77.06;102556.38;4994803;28;20145;-41
2022/01/27 00:42:41;;;;;;;61.63;21.88;;;;;;;5.97;76.98;102543.88;4991559;28;20097;-41
2022/01/27 00:45:07;;;;;;;62.05;22.48;;;;;;;5.96;76.98;102547.53;4973811;28;20045;-41
2022/01/27 00:47:32;;;;;;;69.28;22.00;;;;;;;5.96;77.11;102544.84;4994176;28;20030;-41
2022/01/27 00:49:58;;;;;;;68.03;24.33;;;;;;;5.98;77.20;102540.22;4994372;28;20029;-41
2022/01/27 00:52:38;;;;;;;68.13;22.13;;;;;;;5.95;77.34;102549.34;4994262;28;20061;-41
2022/01/27 00:55:05;;;;;;;52.33;20.88;;;;;;;5.97;77.21;102542.06;4991485;28;20037;-41
2022/01/27 01:00:02;;;;;;;55.05;21.15;;;;;;;5.96;77.67;102524.31;4994798;28;20593;-41
2022/01/27 01:07:48;;;;;;;68.32;21.83;;;;;;;5.90;77.86;102481.97;4969622;28;19913;-40
2022/01/27 01:15:40;;;;;;;65.43;21.80;;;;;;;5.77;78.62;102465.97;4993461;28;20145;-41
2022/01/27 01:29:26;;;;;;;72.40;23.65;;;;;;;5.69;79.33;102457.66;4974260;28;20047;-41
2022/01/27 01:29:39;;;;;;;71.38;24.17;;;;;;;5.63;79.87;102463.44;4993423;28;20053;-41
2022/01/27 01:34:32;;;;;;;73.28;23.50;;;;;;;5.60;80.27;102447.63;4993109;28;20042;-40
2022/01/27 01:37:02;;;;;;;69.38;22.92;;;;;;;5.60;80.56;102450.31;4993010;28;20129;-41
2022/01/27 01:39:30;;;;;;;77.57;24.17;;;;;;;5.57;80.88;102437.16;4993810;28;20505;-42
2022/01/27 01:41:56;;;;;;;80.00;24.17;;;;;;;5.55;80.95;102455.13;4993510;28;20112;-41
2022/01/27 01:44:22;;;;;;;74.82;24.38;;;;;;;5.52;81.50;102450.00;4993036;28;20062;-41
2022/01/27 01:46:47;;;;;;;64.03;22.80;;;;;;;5.48;81.88;102452.91;4993236;28;20133;-41
2022/01/27 01:49:13;;;;;;;76.45;23.75;;;;;;;5.44;82.29;102440.72;4993323;28;20018;-41
2022/01/27 01:51:39;;;;;;;69.22;23.05;;;;;;;5.43;82.30;102438.16;4992019;28;20030;-41
2022/01/27 01:54:06;;;;;;;68.13;22.80;;;;;;;5.40;82.92;102446.41;4992571;28;20056;-41
2022/01/27 01:56:32;;;;;;;74.47;23.88;;;;;;;5.38;82.99;102443.81;4981384;28;20037;-40
2022/01/27 01:58:58;;;;;;;73.10;24.52;;;;;;;5.36;82.75;102435.06;4991530;28;20113;-40
2022/01/27 02:01:23;;;;;;;75.75;24.02;;;;;;;5.35;83.59;102433.38;4991684;28;20022;-41
2022/01/27 02:03:49;;;;;;;67.28;24.08;;;;;;;5.34;83.56;102431.63;4992569;28;20046;-41
2022/01/27 02:06:23;;;;;;;68.57;23.13;;;;;;;5.32;83.58;102438.94;4993126;28;20077;-40
2022/01/27 02:09:18;;;;;;;63.95;22.17;;;;;;;5.33;83.80;102443.28;4993176;28;20034;-41
2022/01/27 02:19:52;;;;;;;59.00;19.92;;;;;;;5.31;83.75;102453.22;4994700;28;20089;-41
2022/01/27 02:22:19;;;;;;;60.17;20.77;;;;;;;5.33;83.59;102456.66;4993823;28;20060;-41
2022/01/27 02:24:44;;;;;;;68.57;21.25;;;;;;;5.33;83.71;102443.28;4994549;28;20030;-41
2022/01/27 02:27:09;;;;;;;54.83;18.98;;;;;;;5.35;83.45;102444.03;4995716;28;20092;-40
2022/01/27 02:29:35;;;;;;;66.47;19.48;;;;;;;5.36;83.73;102445.75;4993499;28;20114;-40
2022/01/27 02:32:01;;;;;;;65.55;18.92;;;;;;;5.38;83.32;102449.16;4992736;28;20113;-40
2022/01/27 02:34:27;;;;;;;60.83;19.83;;;;;;;5.42;83.58;102445.28;4974890;28;20435;-40
2022/01/27 02:36:52;;;;;;;57.15;19.17;;;;;;;5.47;83.34;102435.16;4992332;28;20474;-41
2022/01/27 02:39:18;;;;;;;57.58;17.92;;;;;;;5.53;83.10;102446.34;4990194;28;20061;-40
2022/01/27 02:42:11;;;;;;;61.70;18.38;;;;;;;5.58;82.78;102444.22;4992397;28;20038;-41
2022/01/27 02:44:45;;;;;;;53.38;17.52;;;;;;;5.60;82.93;102426.25;4990382;28;20030;-41
2022/01/27 02:47:15;;;;;;;43.15;16.23;;;;;;;5.65;82.81;102419.63;4992498;28;20042;-40
2022/01/27 02:49:42;;;;;;;53.30;16.60;;;;;;;5.69;82.86;102426.47;5007362;28;20125;-40
2022/01/27 02:52:08;;;;;;;62.00;17.67;;;;;;;5.73;82.97;102411.06;5006714;28;20412;-41
2022/01/27 02:54:34;;;;;;;55.05;17.00;;;;;;;5.76;82.93;102400.13;4990689;28;20034;-40
2022/01/27 02:57:00;;;;;;;50.80;15.70;;;;;;;5.77;83.16;102396.53;4992315;28;20460;-41
2022/01/27 02:59:25;;;;;;;57.80;16.48;;;;;;;5.79;83.33;102402.56;4992246;28;20049;-40
2022/01/27 03:01:51;;;;;;;54.42;15.68;;;;;;;5.81;83.44;102392.63;4988048;28;20394;-41
2022/01/27 03:04:17;;;;;;;62.88;17.02;;;;;;;5.80;83.72;102385.59;4972755;28;20081;-41
2022/01/27 03:06:44;;;;;;;45.22;14.40;;;;;;;5.79;83.47;102367.84;4988355;28;20046;-41
2022/01/27 03:09:10;;;;;;;48.03;14.95;;;;;;;5.80;83.63;102369.56;4991831;28;20041;-41
2022/01/27 03:11:57;;;;;;;46.05;14.50;;;;;;;5.80;83.93;102369.56;4992494;28;20027;-41
2022/01/27 03:14:23;;;;;;;47.55;13.52;;;;;;;5.79;83.94;102354.50;4973052;28;20031;-41
2022/01/27 03:16:49;;;;;;;51.10;14.90;;;;;;;5.80;84.20;102360.72;4972876;28;20139;-41
2022/01/27 03:19:15;;;;;;;43.40;14.88;;;;;;;5.78;84.35;102355.47;4989902;28;20026;-40
2022/01/27 03:21:40;;;;;;;48.38;13.77;;;;;;;5.75;84.42;102361.03;4991720;28;20049;-40
2022/01/27 03:24:06;;;;;;;52.20;13.68;;;;;;;5.77;84.70;102360.94;4990915;28;20026;-40
2022/01/27 03:26:32;;;;;;;48.80;14.85;;;;;;;5.78;84.86;102346.59;4991832;28;20059;-40
2022/01/27 03:28:58;;;;;;;53.97;15.85;;;;;;;5.78;84.65;102346.59;4974611;28;20030;-40
2022/01/27 03:31:24;;;;;;;44.13;12.95;;;;;;;5.77;84.98;102331.56;4988666;28;20035;-41
2022/01/27 03:33:50;;;;;;;58.72;16.30;;;;;;;5.78;85.06;102333.25;4984533;28;20421;-40
2022/01/27 03:36:15;;;;;;;53.70;15.00;;;;;;;5.79;84.76;102341.13;4990162;28;20051;-40
2022/01/27 03:38:40;;;;;;;49.17;15.50;;;;;;;5.82;85.13;102330.25;4991807;28;20122;-40
2022/01/27 03:41:08;;;;;;;43.05;13.77;;;;;;;5.83;85.10;102323.91;4992140;28;20747;-41
2022/01/27 03:43:34;;;;;;;50.63;14.80;;;;;;;5.88;85.31;102311.06;4990375;28;20034;-41
2022/01/27 03:46:00;;;;;;;47.08;13.90;;;;;;;5.92;84.94;102309.88;4991426;28;20035;-41
2022/01/27 03:48:26;;;;;;;51.70;16.35;;;;;;;5.97;85.02;102312.22;4991266;28;20030;-41
2022/01/27 03:50:51;;;;;;;47.85;14.10;;;;;;;6.00;84.92;102303.97;4990590;28;20031;-41
2022/01/27 03:53:17;;;;;;;52.90;14.90;;;;;;;6.03;84.90;102300.22;4991933;28;20100;-42
2022/01/27 03:55:43;;;;;;;63.70;14.77;;;;;;;6.07;84.82;102293.69;4991687;28;20034;-41
2022/01/27 03:58:08;;;;;;;52.13;14.23;;;;;;;6.09;84.90;102302.44;4995251;28;20041;-41
2022/01/27 04:00:34;;;;;;;56.22;13.68;;;;;;;6.12;84.58;102304.88;4994471;28;20030;-40
2022/01/27 04:03:05;;;;;;;45.40;14.60;;;;;;;6.13;84.84;102295.88;4977604;28;20108;-40
2022/01/27 04:05:40;;;;;;;55.00;15.30;;;;;;;6.18;84.84;102311.56;4993540;28;20026;-41
2022/01/27 04:08:06;;;;;;;47.40;14.38;;;;;;;6.20;84.93;102307.81;4995580;28;20038;-41
2022/01/27 04:10:32;;;;;;;56.55;14.73;;;;;;;6.21;85.00;102301.47;4995122;28;20058;-40
2022/01/27 04:12:58;;;;;;;45.92;12.63;;;;;;;6.24;85.15;102298.59;4993665;28;20046;-40
2022/01/27 04:15:23;;;;;;;53.63;13.43;;;;;;;6.25;85.14;102299.44;4994944;28;20035;-40
2022/01/27 04:17:49;;;;;;;54.13;13.85;;;;;;;6.25;85.20;102294.94;4992782;28;20443;-40
2022/01/27 04:20:15;;;;;;;66.97;15.23;;;;;;;6.28;85.10;102270.63;4994887;28;20034;-40
2022/01/27 04:22:41;;;;;;;56.97;14.50;;;;;;;6.30;84.94;102276.72;4993284;28;20044;-41
2022/01/27 04:25:06;;;;;;;55.85;15.25;;;;;;;6.31;85.13;102277.56;4994665;28;20085;-40
2022/01/27 04:27:35;;;;;;;50.80;15.43;;;;;;;6.33;85.09;102279.16;4994548;28;20038;-40
2022/01/27 04:30:02;;;;;;;65.85;14.27;;;;;;;6.36;84.99;102280.75;4994700;28;20054;-40
2022/01/27 04:32:34;;;;;;;53.78;14.60;;;;;;;6.37;84.88;102271.72;4995801;28;20157;-41
2022/01/27 04:35:03;;;;;;;54.05;12.65;;;;;;;6.38;84.92;102263.59;4995358;28;20109;-41
2022/01/27 04:37:32;;;;;;;50.70;12.32;;;;;;;6.41;84.72;102273.22;4997395;28;20074;-40
2022/01/27 04:40:07;;;;;;;50.20;12.95;;;;;;;6.40;84.81;102266.16;4995357;28;20085;-41
2022/01/27 04:42:45;;;;;;;49.30;13.30;;;;;;;6.44;84.88;102277.47;4994653;28;20381;-40
2022/01/27 04:45:13;;;;;;;49.78;13.02;;;;;;;6.44;84.88;102266.78;4993850;28;20033;-40
2022/01/27 04:47:44;;;;;;;54.33;12.82;;;;;;;6.45;85.29;102273.81;4992773;28;20033;-41
2022/01/27 04:50:09;;;;;;;52.97;13.20;;;;;;;6.45;84.99;102268.47;4994647;28;20026;-41
2022/01/27 04:52:39;;;;;;;52.97;14.98;;;;;;;6.45;85.09;102264.00;4994223;28;20033;-41
2022/01/27 04:55:09;;;;;;;44.28;12.30;;;;;;;6.47;85.29;102266.53;4994330;28;20035;-40
2022/01/27 04:57:37;;;;;;;63.75;14.63;;;;;;;6.48;85.26;102269.09;4993805;28;20536;-40
2022/01/27 05:00:04;;;;;;;49.42;13.98;;;;;;;6.50;85.45;102268.97;4993918;28;20088;-42
2022/01/27 05:02:39;;;;;;;45.28;12.85;;;;;;;6.52;85.36;102278.56;4993923;28;20018;-40
2022/01/27 05:05:05;;;;;;;61.53;13.18;;;;;;;6.52;85.54;102265.19;4994090;28;20026;-41
2022/01/27 05:07:31;;;;;;;53.20;12.98;;;;;;;6.53;85.33;102263.38;4993438;28;20107;-40
2022/01/27 05:10:01;;;;;;;54.80;12.82;;;;;;;6.55;85.53;102274.81;4993704;28;20026;-40
2022/01/27 05:12:35;;;;;;;44.42;11.52;;;;;;;6.56;85.54;102264.00;4994238;28;20035;-41
2022/01/27 05:15:01;;;;;;;52.75;12.73;;;;;;;6.55;85.68;102269.44;4993771;28;20030;-41
2022/01/27 05:17:26;;;;;;;60.83;13.90;;;;;;;6.58;85.85;102271.88;4993702;28;20060;-41
2022/01/27 05:19:52;;;;;;;58.45;13.55;;;;;;;6.56;86.08;102265.81;4993058;28;20482;-40
2022/01/27 05:22:17;;;;;;;52.80;13.52;;;;;;;6.56;85.97;102260.47;4993508;28;20424;-41
2022/01/27 05:24:42;;;;;;;56.33;12.48;;;;;;;6.55;86.25;102262.28;4993253;28;20038;-41
2022/01/27 05:27:08;;;;;;;56.85;12.95;;;;;;;6.57;86.11;102260.34;4993606;28;20030;-41
2022/01/27 05:29:33;;;;;;;55.42;12.30;;;;;;;6.58;86.39;102245.13;4993194;28;20034;-42
2022/01/27 05:31:59;;;;;;;61.80;13.13;;;;;;;6.58;86.28;102245.13;4993325;28;20026;-41
2022/01/27 05:34:24;;;;;;;57.55;13.90;;;;;;;6.59;86.79;102245.03;4992164;28;20062;-41
2022/01/27 05:36:50;;;;;;;49.75;12.90;;;;;;;6.59;86.51;102238.81;4992854;28;20097;-41
2022/01/27 05:39:15;;;;;;;56.80;13.27;;;;;;;6.61;86.80;102236.88;4991857;28;20061;-42
2022/01/27 05:41:42;;;;;;;62.75;14.07;;;;;;;6.62;87.20;102243.94;4992812;28;20034;-41
2022/01/27 05:44:07;;;;;;;56.55;13.00;;;;;;;6.63;86.95;102237.59;4992131;28;20054;-42
2022/01/27 05:46:32;;;;;;;60.22;14.13;;;;;;;6.64;87.24;102236.63;4999428;28;20061;-41
2022/01/27 05:48:58;;;;;;;67.85;13.73;;;;;;;6.66;87.24;102226.66;4991656;28;20027;-41
2022/01/27 05:51:23;;;;;;;53.55;12.68;;;;;;;6.69;87.47;102234.44;4991480;28;20121;-41
2022/01/27 05:53:49;;;;;;;57.70;13.43;;;;;;;6.69;87.28;102229.09;4992929;28;20117;-41
2022/01/27 05:56:15;;;;;;;54.55;11.57;;;;;;;6.72;87.09;102222.66;4991888;28;20113;-41
2022/01/27 05:58:41;;;;;;;52.17;12.63;;;;;;;6.71;87.48;102210.22;4991520;28;20041;-41
2022/01/27 06:01:06;;;;;;;63.75;13.48;;;;;;;6.72;87.60;102207.44;4992634;28;20027;-41
2022/01/27 06:03:31;;;;;;;54.30;12.90;;;;;;;6.73;87.56;102203.78;4992362;28;20030;-41
2022/01/27 06:05:57;;;;;;;55.83;12.90;;;;;;;6.73;87.55;102219.00;4992186;28;20031;-41
2022/01/27 06:08:23;;;;;;;58.80;13.15;;;;;;;6.72;87.79;102215.47;4992229;28;20437;-41
2022/01/27 06:10:50;;;;;;;73.93;14.00;;;;;;;6.73;87.90;102219.84;4991380;28;20022;-42
2022/01/27 06:13:16;;;;;;;61.70;13.00;;;;;;;6.74;87.84;102197.47;4975213;28;20084;-41
2022/01/27 06:15:41;;;;;;;55.42;12.90;;;;;;;6.74;88.24;102192.13;4991405;28;20026;-41
2022/01/27 06:18:06;;;;;;;55.85;12.85;;;;;;;6.78;88.17;102196.22;4990707;28;20034;-41
2022/01/27 06:20:32;;;;;;;69.53;12.70;;;;;;;6.77;88.33;102194.53;4990461;28;20030;-42
2022/01/27 06:22:58;;;;;;;60.78;14.43;;;;;;;6.81;88.29;102198.66;4992110;28;20058;-41
2022/01/27 06:25:25;;;;;;;64.63;12.13;;;;;;;6.80;88.20;102210.34;4991359;28;20530;-41
2022/01/27 06:27:51;;;;;;;66.35;12.65;;;;;;;6.81;88.49;102208.50;4986333;28;20057;-41
2022/01/27 06:30:17;;;;;;;56.03;13.52;;;;;;;6.81;88.64;102203.16;4988555;28;20057;-41
2022/01/27 06:32:42;;;;;;;66.50;12.50;;;;;;;6.86;88.59;102205.47;4982899;28;20030;-41
2022/01/27 06:35:08;;;;;;;58.47;14.00;;;;;;;6.85;88.61;102188.56;4987961;28;20391;-41
2022/01/27 06:37:34;;;;;;;72.15;13.50;;;;;;;6.85;88.89;102195.75;4991822;28;20050;-42
2022/01/27 06:40:03;;;;;;;74.32;13.15;;;;;;;6.85;89.08;102198.44;4991822;28;20149;-41
2022/01/27 06:42:28;;;;;;;61.38;12.95;;;;;;;6.88;89.01;102196.34;4991215;28;20068;-42
2022/01/27 06:44:53;;;;;;;48.67;12.43;;;;;;;6.88;89.06;102195.50;4991769;28;20461;-40
2022/01/27 06:47:19;;;;;;;66.55;11.30;;;;;;;6.88;89.13;102200.84;4990092;28;20495;-39
2022/01/27 06:49:44;;;;;;;59.15;11.55;;;;;;;6.89;89.40;102207.91;4988797;28;20050;-42
2022/01/27 06:52:10;;;;;;;62.17;12.90;;;;;;;6.93;89.44;102195.97;4990882;28;20423;-40
2022/01/27 06:54:36;;;;;;;56.05;11.45;;;;;;;6.92;90.27;102208.50;4973132;28;20435;-45
2022/01/27 06:57:02;;;;;;;53.03;12.13;;;;;;;6.91;91.34;102203.28;4990973;28;20085;-40
2022/01/27 06:59:27;;;;;;;58.42;12.25;;;;;;;6.88;91.87;102211.56;4991122;28;20027;-41
2022/01/27 07:01:52;;;;;;;59.10;12.35;;;;;;;6.82;92.45;102208.41;4989403;28;20050;-40
2022/01/27 07:04:18;;;;;;;64.57;14.05;;;;;;;6.86;92.55;102209.00;4990124;28;20102;-41
2022/01/27 07:06:43;;;;;;;61.58;13.52;;;;;;;6.85;93.58;102222.53;4989379;28;20088;-40
2022/01/27 07:09:09;;;;;;;67.30;12.82;;;;;;;6.78;94.37;102206.94;4990964;28;20034;-41
2022/01/27 07:11:34;;;;;;;56.13;14.02;;;;;;;6.71;95.58;102221.78;4987810;28;20034;-51
2022/01/27 07:13:59;;;;;;;73.90;14.20;;;;;;;6.67;96.25;102214.13;4991301;28;20060;-48
2022/01/27 07:16:25;;;;;;;82.57;14.23;;;;;;;6.60;96.91;102216.44;4992018;28;20128;-48
2022/01/27 07:18:52;;;;;;;96.90;19.02;;;;;;;6.56;97.51;102221.19;4991468;28;20026;-48
2022/01/27 07:21:20;;;;;;;67.67;12.97;;;;;;;6.55;98.23;102213.28;4985058;28;20481;-44
2022/01/27 07:23:46;;;;;;;79.45;15.40;;;;;;;6.54;98.63;102219.63;4984453;28;20031;-44
2022/01/27 07:26:13;;;;;;;77.20;14.95;;;;;;;6.54;98.69;102220.47;4989881;28;20447;-43
2022/01/27 07:28:38;;;;;;;85.50;16.67;;;;;;;6.51;98.89;102222.53;4985078;28;20117;-43
2022/01/27 07:31:04;;;;;;;66.53;16.23;;;;;;;6.55;99.27;102224.81;4990675;28;20132;-42
2022/01/27 07:33:29;;;;;;;66.13;14.13;;;;;;;6.52;99.55;102221.56;4974793;28;20065;-43
2022/01/27 07:35:54;;;;;;;96.00;17.38;;;;;;;6.55;99.48;102232.00;4991886;28;20038;-43
2022/01/27 07:38:22;;;;;;;68.82;15.00;;;;;;;6.52;99.73;102222.41;4992494;28;20073;-43
2022/01/27 07:40:48;;;;;;;;;;;;;;;6.54;99.71;102243.69;4992620;28;20750;-42
2022/01/27 07:43:14;;;;;;;82.43;13.55;;;;;;;6.54;99.72;102241.84;4990671;28;19914;-41
2022/01/27 07:45:40;;;;;;;66.80;13.90;;;;;;;6.55;100.00;102232.00;4991812;28;20034;-45
2022/01/27 07:48:05;;;;;;;68.35;13.60;;;;;;;6.53;99.78;102248.19;4990112;28;20513;-43
2022/01/27 07:50:31;;;;;;;81.13;15.38;;;;;;;6.58;100.00;102239.78;4987907;28;20045;-47
2022/01/27 07:52:56;;;;;;;81.57;14.32;;;;;;;6.58;99.94;102242.44;4989515;28;20026;-46
2022/01/27 07:55:22;;;;;;;87.95;14.45;;;;;;;6.55;100.00;102242.69;5003784;28;20482;-47
2022/01/27 07:57:47;;;;;;;68.43;15.98;;;;;;;6.56;100.00;102244.41;4985116;28;20041;-44
2022/01/27 08:00:14;;;;;;;70.47;14.85;;;;;;;6.56;100.00;102239.06;4987462;28;20121;-44
2022/01/27 08:02:40;;;;;;;73.55;14.45;;;;;;;6.55;100.00;102240.03;4990950;28;20088;-42
2022/01/27 08:05:05;;;;;;;67.13;15.65;;;;;;;6.55;100.00;102240.03;4990820;28;20018;-42
2022/01/27 08:07:31;;;;;;;68.50;13.48;;;;;;;6.56;100.00;102244.41;4990258;28;20092;-44
2022/01/27 08:09:56;;;;;;;57.42;13.93;;;;;;;6.60;100.00;102245.88;4993678;28;20089;-43
2022/01/27 08:12:22;;;;;;;74.55;16.55;;;;;;;6.57;100.00;102254.13;4993471;28;20121;-42
2022/01/27 08:14:47;;;;;;;86.70;15.07;;;;;;;6.58;100.00;102251.34;4992469;28;20023;-43
2022/01/27 08:17:13;;;;;;;84.28;15.32;;;;;;;6.61;100.00;102247.59;4993546;28;20138;-43
2022/01/27 08:19:39;;;;;;;72.10;15.85;;;;;;;6.61;100.00;102252.94;4991562;28;20542;-44
2022/01/27 08:22:04;;;;;;;74.10;14.43;;;;;;;6.60;100.00;102240.50;4992419;28;20109;-43
2022/01/27 08:24:30;;;;;;;71.05;14.50;;;;;;;6.61;100.00;102239.56;4994574;28;20062;-43
2022/01/27 08:27:04;;;;;;;66.55;14.15;;;;;;;6.64;100.00;102250.00;4994328;28;20022;-43
2022/01/27 08:29:38;;;;;;;74.55;16.15;;;;;;;6.63;100.00;102245.63;4992350;28;20056;-42
2022/01/27 08:32:06;;;;;;;75.32;14.55;;;;;;;6.67;100.00;102249.75;4992834;28;20466;-42
2022/01/27 08:34:35;;;;;;;;;;;;;;;6.67;100.00;102239.06;4992652;28;20061;-43
2022/01/27 08:37:05;;;;;;;64.75;13.52;;;;;;;6.68;100.00;102247.94;4992878;28;19926;-43
2022/01/27 08:39:31;;;;;;;73.10;14.70;;;;;;;6.69;100.00;102234.44;4957232;28;20034;-42
2022/01/27 08:41:56;;;;;;;70.57;14.07;;;;;;;6.70;100.00;102237.97;4982925;28;20022;-43
2022/01/27 08:44:22;;;;;;;72.25;14.38;;;;;;;6.71;100.00;102237.81;4993831;28;20060;-43
2022/01/27 08:46:48;;;;;;;66.47;13.32;;;;;;;6.73;100.00;102237.72;4992020;28;20029;-44
2022/01/27 08:49:13;;;;;;;65.18;13.93;;;;;;;6.74;100.00;102237.59;4989826;28;20030;-42
2022/01/27 08:51:40;;;;;;;64.72;14.05;;;;;;;6.76;100.00;102246.34;4989138;28;20026;-41
2022/01/27 08:54:06;;;;;;;60.90;13.85;;;;;;;6.79;100.00;102243.44;4988894;28;20030;-41
2022/01/27 08:56:31;;;;;;;71.30;13.13;;;;;;;6.80;100.00;102241.63;4993222;28;20102;-41
2022/01/27 08:58:57;;;;;;;52.47;13.25;;;;;;;6.82;100.00;102242.34;4993109;28;20025;-42
2022/01/27 09:01:25;;;;;;;61.63;12.82;;;;;;;6.85;100.00;102243.94;4991478;28;20048;-42
2022/01/27 09:03:51;;;;;;;60.35;12.48;;;;;;;6.83;100.00;102241.38;4993635;28;20125;-42
2022/01/27 09:06:18;;;;;;;54.83;12.55;;;;;;;6.85;100.00;102235.91;4991196;28;20478;-42
2022/01/27 09:08:44;;;;;;;64.28;13.00;;;;;;;6.80;100.00;102231.75;4993193;28;20394;-41
2022/01/27 09:11:09;;;;;;;56.67;12.40;;;;;;;6.82;100.00;102237.84;4993158;28;20031;-41
2022/01/27 09:13:37;;;;;;;56.20;12.10;;;;;;;6.85;100.00;102233.22;4993706;28;20483;-41
2022/01/27 09:16:03;;;;;;;53.88;10.85;;;;;;;6.91;100.00;102230.88;4993869;28;20113;-42
2022/01/27 09:18:29;;;;;;;57.50;11.80;;;;;;;6.95;99.85;102244.84;4992769;28;20478;-41
2022/01/27 09:20:56;;;;;;;62.10;12.45;;;;;;;6.98;99.51;102233.94;4992244;28;20045;-41
2022/01/27 09:23:22;;;;;;;52.05;11.65;;;;;;;7.00;99.58;102238.19;4974379;28;20035;-41
2022/01/27 09:25:49;;;;;;;51.20;9.98;;;;;;;7.06;99.35;102234.16;4984559;28;20026;-42
2022/01/27 09:28:15;;;;;;;61.13;11.18;;;;;;;7.14;99.28;102231.69;4989937;28;20553;-43
2022/01/27 09:30:42;;;;;;;54.80;10.43;;;;;;;7.18;99.05;102230.47;4982384;28;20030;-42
2022/01/27 09:33:08;;;;;;;44.97;10.37;;;;;;;7.21;98.92;102224.88;4993045;28;20050;-42
2022/01/27 09:35:33;;;;;;;62.13;11.70;;;;;;;7.28;98.40;102237.75;4991338;28;20397;-42
2022/01/27 09:37:59;;;;;;;51.95;10.15;;;;;;;7.28;98.29;102240.44;4992523;28;20074;-42
2022/01/27 09:40:25;;;;;;;49.40;9.70;;;;;;;7.27;98.18;102239.59;4987732;28;20513;-43
2022/01/27 09:42:53;;;;;;;61.92;12.20;;;;;;;7.29;98.49;102244.78;4973981;28;20037;-42
2022/01/27 09:45:20;;;;;;;55.85;10.50;;;;;;;7.25;97.76;102231.66;4991680;28;20038;-41
2022/01/27 09:47:54;;;;;;;62.13;10.63;;;;;;;7.32;97.93;102233.81;4991268;28;20486;-42
2022/01/27 09:50:26;;;;;;;42.08;9.90;;;;;;;7.38;97.91;102246.72;4983683;28;20042;-42
2022/01/27 09:52:52;;;;;;;45.92;8.95;;;;;;;7.38;97.73;102246.72;4987134;28;20038;-43
2022/01/27 09:55:18;;;;;;;51.15;9.85;;;;;;;7.45;97.64;102226.47;4992326;28;20394;-42
2022/01/27 09:57:46;;;;;;;49.10;10.32;;;;;;;7.44;97.36;102227.47;4992216;28;20027;-41
2022/01/27 10:00:12;;;;;;;44.60;9.40;;;;;;;7.43;97.43;102225.78;4992819;28;20391;-42
2022/01/27 10:02:39;;;;;;;46.50;8.73;;;;;;;7.44;96.97;102235.50;4993395;28;20117;-41
2022/01/27 10:05:06;;;;;;;41.00;8.35;;;;;;;7.51;97.28;102231.34;4990045;28;20146;-42
2022/01/27 10:07:41;;;;;;;47.63;10.68;;;;;;;7.52;96.69;102240.22;4990658;28;20394;-42
2022/01/27 10:10:11;;;;;;;50.35;9.88;;;;;;;7.57;96.81;102244.22;4993005;28;20056;-42
2022/01/27 10:12:39;;;;;;;60.90;10.10;;;;;;;7.58;97.43;102242.38;4993023;28;20501;-42
2022/01/27 10:15:17;;;;;;;43.03;11.00;;;;;;;7.64;96.69;102247.25;4991828;28;20026;-42
2022/01/27 10:18:02;;;;;;;;;;;;;;;7.69;96.81;102245.88;4993077;28;20062;-41
2022/01/27 10:20:27;;;;;;;44.17;8.02;;;;;;;7.73;96.29;102250.97;4992264;28;19918;-41
2022/01/27 10:23:12;;;;;;;52.72;10.30;;;;;;;7.66;96.32;102245.28;4991625;28;20497;-42
2022/01/27 10:25:46;;;;;;;44.85;9.70;;;;;;;7.68;95.99;102248.69;4991043;28;20065;-41
2022/01/27 10:28:44;;;;;;;35.25;7.78;;;;;;;7.67;96.00;102252.34;4977781;28;20034;-41
2022/01/27 10:31:19;;;;;;;36.15;9.00;;;;;;;7.73;96.09;102248.31;4979089;28;20026;-41
2022/01/27 10:33:52;;;;;;;41.63;7.40;;;;;;;7.81;96.18;102253.88;4995179;28;20490;-43
2022/01/27 10:36:21;;;;;;;35.03;8.60;;;;;;;7.88;95.78;102244.34;4994300;28;20505;-40
2022/01/27 10:38:49;;;;;;;45.83;8.35;;;;;;;7.94;95.75;102262.56;4992054;28;20054;-40
2022/01/27 10:41:15;;;;;;;44.58;8.35;;;;;;;8.00;95.34;102254.00;4989568;28;20517;-42
2022/01/27 10:43:41;;;;;;;43.17;8.13;;;;;;;7.98;94.73;102252.41;4991880;28;20026;-42
2022/01/27 10:46:27;;;;;;;48.97;8.77;;;;;;;7.95;94.90;102250.84;4991538;28;20026;-40
2022/01/27 10:49:08;;;;;;;36.50;7.43;;;;;;;7.97;94.91;102243.53;4987882;28;20494;-41
2022/01/27 10:51:44;;;;;;;44.45;7.82;;;;;;;7.99;95.08;102254.97;4991796;28;20577;-43
2022/01/27 10:54:36;;;;;;;51.00;8.32;;;;;;;8.02;94.62;102257.41;4992145;28;20565;-43
2022/01/27 10:57:01;;;;;;;43.80;7.88;;;;;;;8.02;94.64;102265.44;4991545;28;20115;-44
2022/01/27 10:59:28;;;;;;;38.88;6.88;;;;;;;8.12;94.69;102271.72;4989756;28;20014;-42
2022/01/27 11:01:55;;;;;;;47.92;7.20;;;;;;;8.16;94.26;102258.06;4989012;28;20058;-42
2022/01/27 11:04:20;;;;;;;36.38;6.95;;;;;;;8.16;93.99;102263.41;4990560;28;20034;-42
2022/01/27 11:07:01;;;;;;;40.83;7.28;;;;;;;8.19;93.92;102268.50;4995555;28;20479;-42
2022/01/27 11:09:28;;;;;;;41.78;7.50;;;;;;;8.25;94.52;102259.97;4987551;28;20030;-43
2022/01/27 11:11:55;;;;;;;29.83;6.85;;;;;;;8.34;93.83;102262.69;4995140;28;20030;-41
2022/01/27 11:14:23;;;;;;;40.28;7.65;;;;;;;8.40;93.46;102265.84;4996175;28;20026;-41
2022/01/27 11:16:51;;;;;;;;;;;;;;;8.40;93.47;102256.00;4996509;28;20074;-42
2022/01/27 11:22:40;;;;;;;54.40;7.28;;;;;;;8.38;93.55;102263.28;4994218;28;20034;-42
2022/01/27 11:25:06;;;;;;;42.13;7.47;;;;;;;8.41;93.59;102256.84;4994988;28;20042;-42
2022/01/27 11:27:33;;;;;;;34.30;6.22;;;;;;;8.47;93.40;102258.97;4995536;28;20414;-41
2022/01/27 11:30:06;;;;;;;38.83;6.97;;;;;;;8.53;93.25;102262.00;4993909;28;20402;-40
2022/01/27 11:32:55;;;;;;;37.75;6.85;;;;;;;8.56;92.41;102245.63;4993453;28;20068;-40
2022/01/27 11:35:23;;;;;;;36.75;6.30;;;;;;;8.63;91.77;102258.47;4992647;28;20034;-41
2022/01/27 11:37:53;;;;;;;38.95;7.00;;;;;;;8.54;92.24;102247.56;4991253;28;20510;-41
2022/01/27 11:40:20;;;;;;;37.65;6.90;;;;;;;8.62;92.21;102260.31;4990033;28;20034;-42
2022/01/27 11:42:55;;;;;;;36.33;6.50;;;;;;;8.65;92.59;102259.22;4995120;28;20038;-41
2022/01/27 11:45:20;;;;;;;44.97;6.45;;;;;;;8.71;91.89;102254.13;4995115;28;20289;-41
2022/01/27 11:48:07;;;;;;;33.30;6.57;;;;;;;8.77;91.39;102255.47;4995335;28;20089;-41
2022/01/27 11:50:57;;;;;;;31.10;5.95;;;;;;;8.84;90.91;102253.91;4988375;28;20064;-41
2022/01/27 11:53:45;;;;;;;47.30;7.00;;;;;;;8.81;91.12;102264.06;4994505;28;20038;-41
2022/01/27 11:56:15;;;;;;;33.25;6.15;;;;;;;8.87;90.68;102258.16;4993049;28;20027;-41
2022/01/27 11:58:47;;;;;;;30.30;6.82;;;;;;;8.89;90.88;102257.03;4993243;28;20025;-41
2022/01/27 12:01:21;;;;;;;36.55;6.85;;;;;;;8.78;90.75;102275.94;4994996;28;20053;-40
2022/01/27 12:04:05;;;;;;;31.27;6.95;;;;;;;8.76;91.21;102262.63;4993185;28;20137;-41
2022/01/27 12:06:37;;;;;;;32.80;6.38;;;;;;;8.68;91.39;102266.97;4992240;28;20121;-40